Time;durP1;ratioP1;P1;durP2;ratioP2;P2;SDS_P1;SDS_P2;PMS_P1;PMS_P2;Temp;Humidity;BMP_temperature;BMP_pressure;BME280_temperature;BME280_humidity;BME280_pressure;Samples;Min_cycle;Max_cycle;Signal;HPM_P1;HPM_P2
2022/12/09 00:01:36;;;;;;;;;;;3.20;99.90;;;;;;8357769;28;19970;-71
2022/12/09 00:05:38;;;;;;;;;;;3.30;99.90;;;;;;8388651;28;19932;-71
2022/12/09 00:09:40;;;;;;;;;;;3.30;99.90;;;;;;8374690;28;20340;-71
2022/12/09 00:13:42;;;;;;;;;;;3.30;99.90;;;;;;8375182;28;19928;-71
2022/12/09 00:17:44;;;;;;;;;;;3.30;99.90;;;;;;8375712;28;20656;-71
2022/12/09 00:21:45;;;;;;;;;;;3.30;99.90;;;;;;8369163;28;19933;-71
2022/12/09 00:25:47;;;;;;;;;;;3.30;99.90;;;;;;8389006;28;19955;-71
2022/12/09 00:29:49;;;;;;;;;;;3.30;99.90;;;;;;8386160;28;20372;-72
2022/12/09 00:33:51;;;;;;;;;;;3.30;99.90;;;;;;8382693;28;19924;-71
2022/12/09 00:37:53;;;;;;;;;;;3.30;99.90;;;;;;8368335;28;19925;-72
2022/12/09 00:41:54;;;;;;;;;;;3.30;99.90;;;;;;8384099;28;19953;-71
2022/12/09 00:45:56;;;;;;;;;;;3.30;99.90;;;;;;8386213;28;19925;-71
2022/12/09 00:49:58;;;;;;;;;;;3.30;99.90;;;;;;8396772;28;20284;-71
2022/12/09 00:53:59;;;;;;;;;;;3.30;99.90;;;;;;8390273;28;19928;-71
2022/12/09 01:08:08;;;;;;;;;;;3.30;99.90;;;;;;8385836;28;20137;-72
2022/12/09 01:12:10;;;;;;;;;;;3.30;99.90;;;;;;8384839;28;19935;-71
2022/12/09 01:16:15;;;;;;;;;;;3.30;99.90;;;;;;8389494;28;19979;-72
2022/12/09 01:20:17;;;;;;;;;;;3.30;99.90;;;;;;8386826;28;19935;-71
2022/12/09 01:24:18;;;;;;;;;;;3.20;99.90;;;;;;8381561;28;19933;-71
2022/12/09 01:28:20;;;;;;;;;;;3.30;99.90;;;;;;8380358;28;19931;-71
2022/12/09 01:32:22;;;;;;;;;;;3.30;99.90;;;;;;8370665;28;19928;-71
2022/12/09 01:36:25;;;;;;;;;;;3.20;99.90;;;;;;8374998;28;19939;-71
2022/12/09 01:46:02;;;;;;;;;;;3.00;99.90;;;;;;8377558;28;19962;-71
2022/12/09 01:50:05;;;;;;;;;;;2.90;99.90;;;;;;8390809;28;19977;-71
2022/12/09 01:54:07;;;;;;;;;;;2.70;99.90;;;;;;8389002;28;19925;-71
2022/12/09 01:58:09;;;;;;;;;;;2.60;99.90;;;;;;8371149;28;19928;-71
2022/12/09 02:02:14;;;;;;;;;;;2.40;99.90;;;;;;8368497;28;19928;-71
2022/12/09 02:06:16;;;;;;;;;;;2.30;99.90;;;;;;8387361;28;20257;-71
2022/12/09 02:10:18;;;;;;;;;;;2.20;99.90;;;;;;8378346;28;19925;-71
2022/12/09 02:14:37;;;;;;;;;;;2.10;99.90;;;;;;8394731;28;19928;-71
2022/12/09 02:18:46;;;;;;;;;;;2.00;99.90;;;;;;8397162;28;19931;-71
2022/12/09 02:22:55;;;;;;;;;;;1.90;99.90;;;;;;8379455;28;19968;-71
2022/12/09 02:27:02;;;;;;;;;;;1.90;99.90;;;;;;8383120;28;20537;-72
2022/12/09 02:31:09;;;;;;;;;;;1.80;99.90;;;;;;8374607;28;19925;-71
2022/12/09 02:35:23;;;;;;;;;;;1.70;99.90;;;;;;8373951;28;19936;-71
2022/12/09 02:39:28;;;;;;;;;;;1.70;99.90;;;;;;8377088;28;19939;-71
2022/12/09 02:43:33;;;;;;;;;;;1.70;99.90;;;;;;8374323;28;20342;-71
2022/12/09 02:47:37;;;;;;;;;;;1.70;99.90;;;;;;8378111;28;19931;-71
2022/12/09 02:51:41;;;;;;;;;;;1.60;99.90;;;;;;8392884;28;19957;-71
2022/12/09 02:55:45;;;;;;;;;;;1.60;99.90;;;;;;8382806;28;20371;-71
2022/12/09 02:59:47;;;;;;;;;;;1.50;99.90;;;;;;8384579;28;19975;-71
2022/12/09 03:03:49;;;;;;;;;;;1.50;99.90;;;;;;8389049;28;20101;-71
2022/12/09 03:07:54;;;;;;;;;;;1.50;99.90;;;;;;8400146;28;19928;-71
2022/12/09 03:11:58;;;;;;;;;;;1.50;99.90;;;;;;8359834;28;19936;-71
2022/12/09 03:16:07;;;;;;;;;;;1.50;99.90;;;;;;8388527;28;19928;-71
2022/12/09 03:20:13;;;;;;;;;;;1.50;99.90;;;;;;8386532;28;19931;-71
2022/12/09 03:24:18;;;;;;;;;;;1.40;99.90;;;;;;8384337;28;20344;-71
2022/12/09 03:28:23;;;;;;;;;;;1.40;99.90;;;;;;8390500;28;19929;-71
2022/12/09 03:32:26;;;;;;;;;;;1.30;99.90;;;;;;8378017;28;19925;-71
2022/12/09 03:41:32;;;;;;;;;;;1.20;99.90;;;;;;8372553;28;19966;-71
2022/12/09 03:45:34;;;;;;;;;;;1.20;99.90;;;;;;8378638;28;19955;-71
2022/12/09 03:49:37;;;;;;;;;;;1.20;99.90;;;;;;8383263;28;19986;-70
2022/12/09 03:53:43;;;;;;;;;;;1.20;99.90;;;;;;8388715;28;19931;-71
2022/12/09 03:57:46;;;;;;;;;;;1.20;99.90;;;;;;8375707;28;19932;-71
2022/12/09 04:01:48;;;;;;;;;;;1.20;99.90;;;;;;8362636;28;19960;-71
2022/12/09 04:05:50;;;;;;;;;;;1.20;99.90;;;;;;8363644;28;19955;-71
2022/12/09 04:09:51;;;;;;;;;;;1.30;99.90;;;;;;8385384;28;19959;-71
2022/12/09 04:13:53;;;;;;;;;;;1.30;99.90;;;;;;8372285;28;20399;-71
2022/12/09 04:17:55;;;;;;;;;;;1.30;99.90;;;;;;8367742;28;19947;-71
2022/12/09 04:21:57;;;;;;;;;;;1.30;99.90;;;;;;8391887;28;19931;-71
2022/12/09 04:25:58;;;;;;;;;;;1.40;99.90;;;;;;8391691;28;19925;-71
2022/12/09 04:30:00;;;;;;;;;;;1.40;99.90;;;;;;8405414;28;19929;-71
2022/12/09 04:34:02;;;;;;;;;;;1.30;99.90;;;;;;8383965;28;20303;-71
2022/12/09 04:38:09;;;;;;;;;;;1.30;99.90;;;;;;8374772;28;20399;-71
2022/12/09 04:42:11;;;;;;;;;;;1.30;99.90;;;;;;8392585;28;19983;-71
2022/12/09 04:46:15;;;;;;;;;;;1.20;99.90;;;;;;8392964;28;19936;-71
2022/12/09 04:50:17;;;;;;;;;;;1.10;99.90;;;;;;8387517;28;19970;-71
2022/12/09 04:54:19;;;;;;;;;;;1.10;99.90;;;;;;8372073;28;19977;-71
2022/12/09 04:58:20;;;;;;;;;;;1.00;99.90;;;;;;8375216;28;19939;-71
2022/12/09 05:02:22;;;;;;;;;;;1.00;99.90;;;;;;8359796;28;20408;-71
2022/12/09 05:06:24;;;;;;;;;;;1.00;99.90;;;;;;8390450;28;19924;-71
2022/12/09 05:10:26;;;;;;;;;;;1.10;99.90;;;;;;8385502;28;19935;-71
2022/12/09 05:14:28;;;;;;;;;;;1.10;99.90;;;;;;8396382;28;20376;-71
2022/12/09 05:18:30;;;;;;;;;;;1.20;99.90;;;;;;8368071;28;19925;-71
2022/12/09 05:22:32;;;;;;;;;;;1.20;99.90;;;;;;8388112;28;19962;-71
2022/12/09 05:26:34;;;;;;;;;;;1.30;99.90;;;;;;8389008;28;19924;-71
2022/12/09 05:30:36;;;;;;;;;;;1.30;99.90;;;;;;8385983;28;20368;-70
2022/12/09 05:34:39;;;;;;;;;;;1.30;99.90;;;;;;8387279;28;21440;-71
2022/12/09 05:38:41;;;;;;;;;;;1.30;99.90;;;;;;8365826;28;19925;-71
2022/12/09 05:42:43;;;;;;;;;;;1.30;99.90;;;;;;8391056;28;20287;-71
2022/12/09 05:46:45;;;;;;;;;;;1.30;99.90;;;;;;8393101;28;19931;-71
2022/12/09 05:51:04;;;;;;;;;;;1.20;99.90;;;;;;8370406;28;19986;-71
2022/12/09 05:55:06;;;;;;;;;;;1.10;99.90;;;;;;8393427;28;19967;-71
2022/12/09 05:59:08;;;;;;;;;;;1.10;99.90;;;;;;8377154;28;19932;-70
2022/12/09 06:03:10;;;;;;;;;;;1.00;99.90;;;;;;8379134;28;19931;-71
2022/12/09 06:07:12;;;;;;;;;;;1.00;99.90;;;;;;8386137;28;19931;-71
2022/12/09 06:11:15;;;;;;;;;;;1.00;99.90;;;;;;8372614;28;20414;-71
2022/12/09 06:15:17;;;;;;;;;;;1.00;99.90;;;;;;8384156;28;19928;-71
2022/12/09 06:19:22;;;;;;;;;;;1.10;99.90;;;;;;8371000;28;19970;-71
2022/12/09 06:23:24;;;;;;;;;;;1.10;99.90;;;;;;8393227;28;19925;-71
2022/12/09 06:27:26;;;;;;;;;;;1.10;99.90;;;;;;8389661;28;19970;-70
2022/12/09 06:31:28;;;;;;;;;;;1.20;99.90;;;;;;8384895;28;19932;-71
2022/12/09 06:35:30;;;;;;;;;;;1.20;99.90;;;;;;8384342;28;20134;-71
2022/12/09 06:39:32;;;;;;;;;;;1.30;99.90;;;;;;8384130;28;19928;-70
2022/12/09 06:43:34;;;;;;;;;;;1.30;99.90;;;;;;8368252;28;19931;-70
2022/12/09 06:47:36;;;;;;;;;;;1.40;99.90;;;;;;8379535;28;19943;-70
2022/12/09 06:51:37;;;;;;;;;;;1.40;99.90;;;;;;8369978;28;19980;-71
2022/12/09 06:55:39;;;;;;;;;;;1.30;99.90;;;;;;8375851;28;19978;-70
2022/12/09 06:59:41;;;;;;;;;;;1.30;99.90;;;;;;8375342;28;19936;-70
2022/12/09 07:03:44;;;;;;;;;;;1.30;99.90;;;;;;8380915;28;19936;-70
2022/12/09 07:07:50;;;;;;;;;;;1.30;99.90;;;;;;8384360;28;19925;-72
2022/12/09 07:11:52;;;;;;;;;;;1.30;99.90;;;;;;8376529;28;19970;-71
2022/12/09 07:15:54;;;;;;;;;;;1.40;99.90;;;;;;8360500;28;20015;-70
2022/12/09 07:19:56;;;;;;;;;;;1.40;99.90;;;;;;8359951;28;19924;-71
2022/12/09 07:24:04;;;;;;;;;;;1.50;99.90;;;;;;8386980;28;19928;-70
2022/12/09 07:28:05;;;;;;;;;;;1.50;99.90;;;;;;8388633;28;20593;-71
2022/12/09 07:32:09;;;;;;;;;;;1.50;99.90;;;;;;8373175;28;19931;-71
2022/12/09 07:36:12;;;;;;;;;;;1.50;99.90;;;;;;8387823;28;19929;-72
2022/12/09 07:40:19;;;;;;;;;;;1.60;99.90;;;;;;8379076;28;19951;-72
2022/12/09 07:44:22;;;;;;;;;;;1.60;99.90;;;;;;8392714;28;20675;-72
2022/12/09 07:48:23;;;;;;;;;;;1.60;99.90;;;;;;8369283;28;19972;-72
2022/12/09 07:52:26;;;;;;;;;;;1.70;99.90;;;;;;8377271;28;19924;-72
2022/12/09 07:56:28;;;;;;;;;;;1.70;99.90;;;;;;8395983;28;19940;-72
2022/12/09 08:00:30;;;;;;;;;;;1.70;99.90;;;;;;8385737;28;19924;-72
2022/12/09 08:04:33;;;;;;;;;;;1.70;99.90;;;;;;8383285;28;19932;-72
2022/12/09 08:08:35;;;;;;;;;;;1.70;99.90;;;;;;8385767;28;19986;-72
2022/12/09 08:12:37;;;;;;;;;;;1.70;99.90;;;;;;8394444;28;19925;-71
2022/12/09 08:16:40;;;;;;;;;;;1.70;99.90;;;;;;8400971;28;19931;-71
2022/12/09 08:20:43;;;;;;;;;;;1.60;99.90;;;;;;8405998;28;19925;-72
2022/12/09 08:24:45;;;;;;;;;;;1.50;99.90;;;;;;8398793;28;20386;-71
2022/12/09 08:28:47;;;;;;;;;;;1.50;99.90;;;;;;8392768;28;20368;-71
2022/12/09 08:32:49;;;;;;;;;;;1.40;99.90;;;;;;8396248;28;19931;-72
2022/12/09 08:36:51;;;;;;;;;;;1.40;99.90;;;;;;8391908;28;19928;-72
2022/12/09 08:40:57;;;;;;;;;;;1.30;99.90;;;;;;8394775;28;19935;-71
2022/12/09 08:44:59;;;;;;;;;;;1.30;99.90;;;;;;8396784;28;20391;-72
2022/12/09 08:49:04;;;;;;;;;;;1.30;99.90;;;;;;8391517;28;19955;-72
2022/12/09 08:53:06;;;;;;;;;;;1.40;99.90;;;;;;8399921;28;19933;-71
2022/12/09 08:57:07;;;;;;;;;;;1.50;99.90;;;;;;8397161;28;19935;-72
2022/12/09 09:01:16;;;;;;;;;;;1.70;99.90;;;;;;8389784;28;19936;-72
2022/12/09 09:05:17;;;;;;;;;;;1.90;99.90;;;;;;8395043;28;19924;-72
2022/12/09 09:09:20;;;;;;;;;;;2.10;99.90;;;;;;8396790;28;19932;-73
2022/12/09 09:13:22;;;;;;;;;;;2.40;99.90;;;;;;8399399;28;19978;-72
2022/12/09 09:17:24;;;;;;;;;;;2.60;99.90;;;;;;8390836;28;19959;-72
2022/12/09 09:21:27;;;;;;;;;;;2.70;99.90;;;;;;8394264;28;19938;-72
2022/12/09 09:25:29;;;;;;;;;;;2.60;99.90;;;;;;8393372;28;19924;-72
2022/12/09 09:29:31;;;;;;;;;;;2.50;99.90;;;;;;8392334;28;20038;-71
2022/12/09 09:33:33;;;;;;;;;;;2.50;99.90;;;;;;8407539;28;19932;-72
2022/12/09 09:37:35;;;;;;;;;;;2.40;99.90;;;;;;8390119;28;19970;-71
2022/12/09 09:41:40;;;;;;;;;;;2.40;99.90;;;;;;8395577;28;20311;-72
2022/12/09 09:45:43;;;;;;;;;;;2.40;99.90;;;;;;8393836;28;19928;-72
2022/12/09 09:49:48;;;;;;;;;;;2.50;99.90;;;;;;8374297;28;20358;-71
2022/12/09 09:53:51;;;;;;;;;;;2.70;99.90;;;;;;8395549;28;19935;-71
2022/12/09 09:58:03;;;;;;;;;;;2.70;99.90;;;;;;8396595;28;19925;-72
2022/12/09 10:02:16;;;;;;;;;;;2.80;99.90;;;;;;8391970;28;19924;-71
2022/12/09 10:06:28;;;;;;;;;;;2.80;99.90;;;;;;8398911;28;19928;-71
2022/12/09 10:10:33;;;;;;;;;;;2.80;99.90;;;;;;8390668;28;19928;-71
2022/12/09 10:14:38;;;;;;;;;;;3.00;99.90;;;;;;8386998;28;20379;-71
2022/12/09 10:18:51;;;;;;;;;;;3.20;99.90;;;;;;8395517;28;19927;-72
2022/12/09 10:23:01;;;;;;;;;;;3.40;99.90;;;;;;8391756;28;19924;-71
2022/12/09 10:27:27;;;;;;;;;;;3.50;99.90;;;;;;8398267;28;19932;-71
2022/12/09 10:31:30;;;;;;;;;;;3.70;99.90;;;;;;8398159;28;20287;-71
2022/12/09 10:35:31;;;;;;;;;;;3.80;99.90;;;;;;8375395;28;20023;-71
2022/12/09 10:39:34;;;;;;;;;;;4.00;99.90;;;;;;8399357;28;19963;-71
2022/12/09 10:43:37;;;;;;;;;;;4.00;99.90;;;;;;8387408;28;20339;-71
2022/12/09 10:47:47;;;;;;;;;;;4.20;99.90;;;;;;8390753;28;19929;-72
2022/12/09 10:51:50;;;;;;;;;;;4.50;99.90;;;;;;8391685;28;19928;-71
2022/12/09 10:55:54;;;;;;;;;;;5.00;99.90;;;;;;8381224;28;19978;-71
2022/12/09 10:59:56;;;;;;;;;;;5.20;99.90;;;;;;8388961;28;20028;-71
2022/12/09 11:04:10;;;;;;;;;;;5.30;99.90;;;;;;8381906;28;19924;-71
2022/12/09 11:08:19;;;;;;;;;;;5.50;99.90;;;;;;8389809;28;19933;-71
2022/12/09 11:12:28;;;;;;;;;;;6.00;99.90;;;;;;8399430;28;19971;-72
2022/12/09 11:16:34;;;;;;;;;;;6.10;99.90;;;;;;8395364;28;19937;-72
2022/12/09 11:20:36;;;;;;;;;;;6.10;99.90;;;;;;8374869;28;20411;-71
2022/12/09 11:24:39;;;;;;;;;;;6.40;99.90;;;;;;8393948;28;19944;-71
2022/12/09 11:28:41;;;;;;;;;;;6.10;99.90;;;;;;8393091;28;20346;-71
2022/12/09 11:32:55;;;;;;;;;;;5.80;99.90;;;;;;8403881;28;19927;-71
2022/12/09 11:36:57;;;;;;;;;;;5.70;99.90;;;;;;8396698;28;19931;-71
2022/12/09 11:42:12;;;;;;;;;;;5.80;99.90;;;;;;8380473;28;20299;-71
2022/12/09 11:45:44;;;;;;;;;;;6.30;99.90;;;;;;8404917;28;19924;-72
2022/12/09 11:49:54;;;;;;;;;;;7.60;99.90;;;;;;8394077;28;20739;-71
2022/12/09 11:54:01;;;;;;;;;;;8.20;99.90;;;;;;8399996;28;20372;-71
2022/12/09 11:58:06;;;;;;;;;;;8.10;99.90;;;;;;8396057;28;19924;-71
2022/12/09 12:02:13;;;;;;;;;;;7.60;99.90;;;;;;8384436;28;19956;-72
2022/12/09 12:06:22;;;;;;;;;;;7.20;99.90;;;;;;8394454;28;19924;-71
2022/12/09 12:10:27;;;;;;;;;;;6.80;99.90;;;;;;8396643;28;19928;-72
2022/12/09 12:14:29;;;;;;;;;;;6.50;99.90;;;;;;8405486;28;21533;-72
2022/12/09 12:18:40;;;;;;;;;;;6.40;99.90;;;;;;8403316;28;19925;-72
2022/12/09 12:22:42;;;;;;;;;;;6.40;99.90;;;;;;8401599;28;19974;-72
2022/12/09 12:26:49;;;;;;;;;;;6.50;99.90;;;;;;8406590;28;19932;-72
2022/12/09 12:31:07;;;;;;;;;;;6.60;99.90;;;;;;8394893;28;19924;-72
2022/12/09 12:35:20;;;;;;;;;;;6.70;99.90;;;;;;8399967;28;19924;-72
2022/12/09 12:39:36;;;;;;;;;;;6.60;99.90;;;;;;8397042;28;20289;-72
2022/12/09 12:48:14;;;;;;;;;;;6.50;99.90;;;;;;8403722;28;19924;-72
2022/12/09 12:52:21;;;;;;;;;;;7.60;99.90;;;;;;8392000;28;19924;-72
2022/12/09 12:56:49;;;;;;;;;;;8.70;99.90;;;;;;8398223;28;19932;-72
2022/12/09 13:01:12;;;;;;;;;;;9.20;99.90;;;;;;8388338;28;19930;-72
2022/12/09 13:05:20;;;;;;;;;;;9.20;99.90;;;;;;8403422;28;19932;-72
2022/12/09 13:09:28;;;;;;;;;;;8.80;99.90;;;;;;8393355;28;19924;-72
2022/12/09 13:13:31;;;;;;;;;;;8.10;99.90;;;;;;8399642;28;19924;-72
2022/12/09 13:17:33;;;;;;;;;;;7.40;99.90;;;;;;8396233;28;19930;-72
2022/12/09 13:21:35;;;;;;;;;;;6.90;99.90;;;;;;8397989;28;21270;-72
2022/12/09 13:25:41;;;;;;;;;;;6.50;99.90;;;;;;8393763;28;19968;-72
2022/12/09 13:29:46;;;;;;;;;;;6.20;99.90;;;;;;8385570;28;20399;-72
2022/12/09 13:33:55;;;;;;;;;;;6.00;99.90;;;;;;8403763;28;20011;-71
2022/12/09 13:37:57;;;;;;;;;;;5.80;99.90;;;;;;8385675;28;20015;-71
2022/12/09 13:46:20;;;;;;;;;;;5.50;99.90;;;;;;8403376;28;19985;-72
2022/12/09 13:50:25;;;;;;;;;;;5.40;99.90;;;;;;8388889;28;19925;-71
2022/12/09 13:54:28;;;;;;;;;;;5.30;99.90;;;;;;8398081;28;19929;-71
2022/12/09 13:58:48;;;;;;;;;;;5.30;99.90;;;;;;8395501;28;20398;-70
2022/12/09 14:02:57;;;;;;;;;;;5.20;99.90;;;;;;8391844;28;20388;-71
2022/12/09 14:06:59;;;;;;;;;;;5.20;99.90;;;;;;8377701;28;19928;-70
2022/12/09 14:11:22;;;;;;;;;;;5.20;99.90;;;;;;8397741;28;20432;-70
2022/12/09 14:15:24;;;;;;;;;;;5.10;99.90;;;;;;8392240;28;19932;-70
2022/12/09 14:19:26;;;;;;;;;;;5.10;99.90;;;;;;8376785;28;19928;-70
2022/12/09 14:23:27;;;;;;;;;;;5.10;99.90;;;;;;8386077;28;20275;-70
2022/12/09 14:27:30;;;;;;;;;;;5.00;99.90;;;;;;8375851;28;20015;-70
2022/12/09 14:31:41;;;;;;;;;;;5.00;99.90;;;;;;8384124;28;20423;-70
2022/12/09 14:35:45;;;;;;;;;;;4.90;99.90;;;;;;8386616;28;19958;-70
2022/12/09 14:39:49;;;;;;;;;;;4.80;99.90;;;;;;8370111;28;19928;-70
2022/12/09 14:44:00;;;;;;;;;;;4.80;99.90;;;;;;8388876;28;19964;-70
2022/12/09 14:48:07;;;;;;;;;;;5.10;99.90;;;;;;8367103;28;19931;-70
2022/12/09 14:52:27;;;;;;;;;;;5.30;99.90;;;;;;8385575;28;19928;-71
2022/12/09 14:56:29;;;;;;;;;;;5.40;99.90;;;;;;8402347;28;19929;-70
2022/12/09 15:00:34;;;;;;;;;;;5.20;99.90;;;;;;8388708;28;19931;-70
2022/12/09 15:04:40;;;;;;;;;;;5.00;99.90;;;;;;8387500;28;21186;-71
2022/12/09 15:08:42;;;;;;;;;;;4.70;99.90;;;;;;8363409;28;19966;-70
2022/12/09 15:12:45;;;;;;;;;;;4.40;99.90;;;;;;8397337;28;20280;-70
2022/12/09 15:16:48;;;;;;;;;;;4.10;99.90;;;;;;8390697;28;19928;-70
2022/12/09 15:20:52;;;;;;;;;;;4.00;99.90;;;;;;8390589;28;19930;-71
2022/12/09 15:24:54;;;;;;;;;;;3.80;99.90;;;;;;8396674;28;19927;-70
2022/12/09 15:28:58;;;;;;;;;;;3.60;99.90;;;;;;8400481;28;19931;-70
2022/12/09 15:33:00;;;;;;;;;;;3.50;99.90;;;;;;8394508;28;20322;-70
2022/12/09 15:37:04;;;;;;;;;;;3.50;99.90;;;;;;8396064;28;20371;-71
2022/12/09 15:45:29;;;;;;;;;;;3.50;99.90;;;;;;8399855;28;19975;-70
2022/12/09 15:49:32;;;;;;;;;;;3.50;99.90;;;;;;8373535;28;19928;-70
2022/12/09 15:53:53;;;;;;;;;;;3.50;99.90;;;;;;8401859;28;19935;-70
2022/12/09 15:57:56;;;;;;;;;;;3.40;99.90;;;;;;8387921;28;19924;-70
2022/12/09 16:01:58;;;;;;;;;;;3.40;99.90;;;;;;8373412;28;19928;-71
2022/12/09 16:06:02;;;;;;;;;;;3.40;99.90;;;;;;8359824;28;20368;-70
2022/12/09 16:10:12;;;;;;;;;;;3.40;99.90;;;;;;8362476;28;19933;-70
2022/12/09 16:14:15;;;;;;;;;;;3.40;99.90;;;;;;8361634;28;19976;-70
2022/12/09 16:18:21;;;;;;;;;;;3.30;99.90;;;;;;8358457;28;20445;-70
2022/12/09 16:22:30;;;;;;;;;;;3.20;99.90;;;;;;8376042;28;20292;-69
2022/12/09 16:26:34;;;;;;;;;;;3.00;99.90;;;;;;8340106;28;19964;-70
2022/12/09 16:30:43;;;;;;;;;;;2.90;99.90;;;;;;8361292;28;20012;-70
2022/12/09 16:34:45;;;;;;;;;;;2.80;99.90;;;;;;8357335;28;19956;-70
2022/12/09 16:39:22;;;;;;;;;;;2.70;99.90;;;;;;8360020;28;19939;-70
2022/12/09 16:43:25;;;;;;;;;;;2.60;99.90;;;;;;8359018;28;20399;-70
2022/12/09 16:47:27;;;;;;;;;;;2.50;99.90;;;;;;8359866;28;19997;-71
2022/12/09 16:51:29;;;;;;;;;;;2.40;99.90;;;;;;8341328;28;20377;-70
2022/12/09 16:55:31;;;;;;;;;;;2.30;99.90;;;;;;8357855;28;20066;-70
2022/12/09 16:59:32;;;;;;;;;;;2.20;99.90;;;;;;8371620;28;20292;-70
2022/12/09 17:03:41;;;;;;;;;;;2.20;99.90;;;;;;8360760;28;19975;-70
2022/12/09 17:07:43;;;;;;;;;;;2.10;99.90;;;;;;8352386;28;19995;-70
2022/12/09 17:11:45;;;;;;;;;;;2.10;99.90;;;;;;8364819;28;19929;-70
2022/12/09 17:15:50;;;;;;;;;;;2.00;99.90;;;;;;8359195;28;19972;-70
2022/12/09 17:19:52;;;;;;;;;;;2.00;99.90;;;;;;8356795;28;20372;-70
2022/12/09 17:23:53;;;;;;;;;;;1.90;99.90;;;;;;8375500;28;19925;-70
2022/12/09 17:27:55;;;;;;;;;;;1.90;99.90;;;;;;8357739;28;19933;-70
2022/12/09 17:31:56;;;;;;;;;;;1.80;99.90;;;;;;8358202;28;20272;-70
2022/12/09 17:35:58;;;;;;;;;;;1.70;99.90;;;;;;8362984;28;19924;-70
2022/12/09 17:40:00;;;;;;;;;;;1.70;99.90;;;;;;8371859;28;19924;-70
2022/12/09 17:44:04;;;;;;;;;;;1.60;99.90;;;;;;8343499;28;19932;-70
2022/12/09 17:48:06;;;;;;;;;;;1.50;99.90;;;;;;8360490;28;20288;-70
2022/12/09 17:52:08;;;;;;;;;;;1.50;99.90;;;;;;8357769;28;19933;-70
2022/12/09 17:56:11;;;;;;;;;;;1.50;99.90;;;;;;8359814;28;19975;-70
2022/12/09 18:00:13;;;;;;;;;;;1.50;99.90;;;;;;8372662;28;19947;-70
2022/12/09 18:04:15;;;;;;;;;;;1.50;99.90;;;;;;8357188;28;19936;-70
2022/12/09 18:08:16;;;;;;;;;;;1.40;99.90;;;;;;8353004;28;21974;-70
2022/12/09 18:12:18;;;;;;;;;;;1.40;99.90;;;;;;8339382;28;19964;-69
2022/12/09 18:16:20;;;;;;;;;;;1.30;99.90;;;;;;8359142;28;19952;-69
2022/12/09 18:20:22;;;;;;;;;;;1.20;99.90;;;;;;8352681;28;19925;-69
2022/12/09 18:24:26;;;;;;;;;;;1.10;99.90;;;;;;8363691;28;19925;-70
2022/12/09 18:28:28;;;;;;;;;;;1.10;99.90;;;;;;8358668;28;19932;-71
2022/12/09 18:32:30;;;;;;;;;;;1.10;99.90;;;;;;8342919;28;19973;-70
2022/12/09 18:36:36;;;;;;;;;;;1.10;99.90;;;;;;8371271;28;19929;-69
2022/12/09 18:40:59;;;;;;;;;;;1.00;99.90;;;;;;8360858;28;19925;-70
2022/12/09 18:45:00;;;;;;;;;;;1.00;99.90;;;;;;8365636;28;20011;-70
2022/12/09 18:49:18;;;;;;;;;;;0.90;99.90;;;;;;8345935;28;20407;-69
2022/12/09 18:53:20;;;;;;;;;;;0.90;99.90;;;;;;8373432;28;19931;-69
2022/12/09 18:57:22;;;;;;;;;;;0.90;99.90;;;;;;8361183;28;20023;-70
2022/12/09 19:01:30;;;;;;;;;;;0.80;99.90;;;;;;8358826;28;19933;-70
2022/12/09 19:05:38;;;;;;;;;;;0.80;99.90;;;;;;8352046;28;19962;-70
2022/12/09 19:09:40;;;;;;;;;;;0.80;99.90;;;;;;8351615;28;19928;-70
2022/12/09 19:13:42;;;;;;;;;;;0.70;99.90;;;;;;8369200;28;19935;-70
2022/12/09 19:17:45;;;;;;;;;;;0.70;99.90;;;;;;8354304;28;19931;-70
2022/12/09 19:21:47;;;;;;;;;;;0.60;99.90;;;;;;8354496;28;20431;-69
2022/12/09 19:25:48;;;;;;;;;;;0.60;99.90;;;;;;8335506;28;20011;-70
2022/12/09 19:29:50;;;;;;;;;;;0.60;99.90;;;;;;8353927;28;19955;-69
2022/12/09 19:33:53;;;;;;;;;;;0.60;99.90;;;;;;8354712;28;20292;-70
2022/12/09 19:37:55;;;;;;;;;;;0.60;99.90;;;;;;8350578;28;19928;-70
2022/12/09 19:42:02;;;;;;;;;;;0.60;99.90;;;;;;8360259;28;19932;-70
2022/12/09 19:46:05;;;;;;;;;;;0.60;99.90;;;;;;8362467;28;19960;-70
2022/12/09 19:50:07;;;;;;;;;;;0.60;99.90;;;;;;8355944;28;19925;-70
2022/12/09 19:54:09;;;;;;;;;;;0.60;99.90;;;;;;8341347;28;20316;-70
2022/12/09 19:58:10;;;;;;;;;;;0.70;99.90;;;;;;8342503;28;19933;-70
2022/12/09 20:02:13;;;;;;;;;;;0.70;99.90;;;;;;8361831;28;19983;-70
2022/12/09 20:06:16;;;;;;;;;;;0.70;99.90;;;;;;8361148;28;20323;-70
2022/12/09 20:10:18;;;;;;;;;;;0.60;99.90;;;;;;8367198;28;19932;-70
2022/12/09 20:14:20;;;;;;;;;;;0.60;99.90;;;;;;8364484;28;19951;-70
2022/12/09 20:18:22;;;;;;;;;;;0.60;99.90;;;;;;8342304;28;19925;-70
2022/12/09 20:22:24;;;;;;;;;;;0.60;99.90;;;;;;8360639;28;19931;-70
2022/12/09 20:26:27;;;;;;;;;;;0.60;99.90;;;;;;8340052;28;20281;-70
2022/12/09 20:30:29;;;;;;;;;;;0.60;99.90;;;;;;8356744;28;20283;-72
2022/12/09 20:34:32;;;;;;;;;;;0.60;99.90;;;;;;8362166;28;19933;-71
2022/12/09 20:38:34;;;;;;;;;;;0.60;99.90;;;;;;8359406;28;20051;-72
2022/12/09 20:42:36;;;;;;;;;;;0.50;99.90;;;;;;8373408;28;19932;-72
2022/12/09 20:46:38;;;;;;;;;;;0.50;99.90;;;;;;8360154;28;19935;-72
2022/12/09 20:50:39;;;;;;;;;;;0.40;99.90;;;;;;8359845;28;19931;-72
2022/12/09 20:54:41;;;;;;;;;;;0.40;99.90;;;;;;8359602;28;20279;-72
2022/12/09 20:58:43;;;;;;;;;;;0.40;99.90;;;;;;8355755;28;20296;-72
2022/12/09 21:02:45;;;;;;;;;;;0.40;99.90;;;;;;8347414;28;19928;-72
2022/12/09 21:06:47;;;;;;;;;;;0.30;99.90;;;;;;8360767;28;19928;-72
2022/12/09 21:10:49;;;;;;;;;;;0.30;99.90;;;;;;8361365;28;19925;-72
2022/12/09 21:14:50;;;;;;;;;;;0.30;99.90;;;;;;8363382;28;19932;-72
2022/12/09 21:18:53;;;;;;;;;;;0.20;99.90;;;;;;8344720;28;19956;-71
2022/12/09 21:22:55;;;;;;;;;;;0.20;99.90;;;;;;8361744;28;20296;-72
2022/12/09 21:27:16;;;;;;;;;;;0.20;99.90;;;;;;8360291;28;19928;-72
2022/12/09 21:31:19;;;;;;;;;;;0.20;99.90;;;;;;8343388;28;19936;-71
2022/12/09 21:35:21;;;;;;;;;;;0.20;99.90;;;;;;8344047;28;19979;-72
2022/12/09 21:39:22;;;;;;;;;;;0.20;99.90;;;;;;8359914;28;20372;-72
2022/12/09 21:43:24;;;;;;;;;;;0.20;99.90;;;;;;8359627;28;19932;-71
2022/12/09 21:47:25;;;;;;;;;;;0.20;99.90;;;;;;8357548;28;19936;-72
2022/12/09 21:51:27;;;;;;;;;;;0.20;99.90;;;;;;8361105;28;19964;-71
2022/12/09 21:55:31;;;;;;;;;;;0.20;99.90;;;;;;8369902;28;19929;-72
2022/12/09 21:59:33;;;;;;;;;;;0.20;99.90;;;;;;8356360;28;20039;-71
2022/12/09 22:03:34;;;;;;;;;;;0.20;99.90;;;;;;8382576;28;19924;-72
2022/12/09 22:07:36;;;;;;;;;;;0.20;99.90;;;;;;8366231;28;19942;-71
2022/12/09 22:11:38;;;;;;;;;;;0.20;99.90;;;;;;8371004;28;19979;-71
2022/12/09 22:15:40;;;;;;;;;;;0.20;99.90;;;;;;8369803;28;20015;-72
2022/12/09 22:19:41;;;;;;;;;;;0.10;99.90;;;;;;8367462;28;19932;-71
2022/12/09 22:23:43;;;;;;;;;;;0.00;99.90;;;;;;8394461;28;19962;-71
2022/12/09 22:27:45;;;;;;;;;;;0.00;99.90;;;;;;8371683;28;20007;-71
2022/12/09 22:31:47;;;;;;;;;;;0.00;99.90;;;;;;8384898;28;20411;-72
2022/12/09 22:35:48;;;;;;;;;;;0.00;99.90;;;;;;8380553;28;20391;-72
2022/12/09 22:39:50;;;;;;;;;;;0.00;99.90;;;;;;8384085;28;20283;-71
2022/12/09 22:43:53;;;;;;;;;;;0.00;99.90;;;;;;8382103;28;19964;-71
2022/12/09 22:47:54;;;;;;;;;;;0.00;99.90;;;;;;8388234;28;19927;-71
2022/12/09 22:51:56;;;;;;;;;;;0.00;99.90;;;;;;8390189;28;19928;-72
2022/12/09 22:56:01;;;;;;;;;;;0.00;99.90;;;;;;8381092;28;19928;-72
2022/12/09 23:00:04;;;;;;;;;;;0.10;99.90;;;;;;8370961;28;19933;-71
2022/12/09 23:04:06;;;;;;;;;;;0.10;99.90;;;;;;8380711;28;19939;-71
2022/12/09 23:08:08;;;;;;;;;;;0.10;99.90;;;;;;8385768;28;19964;-71
2022/12/09 23:12:10;;;;;;;;;;;0.20;99.90;;;;;;8385055;28;19924;-71
2022/12/09 23:16:13;;;;;;;;;;;0.20;99.90;;;;;;8397266;28;20426;-72
2022/12/09 23:20:15;;;;;;;;;;;0.20;99.90;;;;;;8379510;28;19986;-71
2022/12/09 23:24:16;;;;;;;;;;;0.20;99.90;;;;;;8375528;28;20019;-71
2022/12/09 23:28:24;;;;;;;;;;;0.20;99.90;;;;;;8394911;28;20086;-71
2022/12/09 23:32:26;;;;;;;;;;;0.30;99.90;;;;;;8386031;28;19939;-71
2022/12/09 23:36:32;;;;;;;;;;;0.30;99.90;;;;;;8374962;28;20393;-71
2022/12/09 23:40:34;;;;;;;;;;;0.30;99.90;;;;;;8395743;28;20451;-71
2022/12/09 23:44:36;;;;;;;;;;;0.30;99.90;;;;;;8375735;28;19975;-71
2022/12/09 23:48:37;;;;;;;;;;;0.30;99.90;;;;;;8386095;28;19924;-71
2022/12/09 23:52:39;;;;;;;;;;;0.30;99.90;;;;;;8385459;28;19929;-72
